Time;durP1;ratioP1;P1;durP2;ratioP2;P2;SDS_P1;SDS_P2;PMS_P1;PMS_P2;Temp;Humidity;BMP_temperature;BMP_pressure;BME280_temperature;BME280_humidity;BME280_pressure;Samples;Min_cycle;Max_cycle;Signal;HPM_P1;HPM_P2
2023/08/02 00:01:33;;;;;;;46.13;30.98;;;;;;;28.69;100.00;97183.22;4757382;30;20055;-64
2023/08/02 00:04:02;;;;;;;46.35;30.80;;;;;;;28.69;100.00;97178.56;4752064;30;20083;-65
2023/08/02 00:06:38;;;;;;;49.83;32.40;;;;;;;28.69;100.00;97177.78;4751958;30;20155;-65
2023/08/02 00:09:09;;;;;;;43.25;28.88;;;;;;;28.68;100.00;97182.41;4754996;30;20185;-65
2023/08/02 00:11:40;;;;;;;48.90;30.77;;;;;;;28.68;100.00;97184.38;4751808;30;20465;-65
2023/08/02 00:14:10;;;;;;;41.47;29.10;;;;;;;28.67;100.00;97185.50;4753623;30;20208;-66
2023/08/02 00:16:42;;;;;;;43.58;29.45;;;;;;;28.66;100.00;97182.00;4752198;30;20155;-66
2023/08/02 00:19:15;;;;;;;44.00;30.85;;;;;;;28.67;100.00;97185.50;4751640;30;20136;-66
2023/08/02 00:21:44;;;;;;;40.13;28.88;;;;;;;28.67;100.00;97190.97;4750350;30;20052;-66
2023/08/02 00:24:14;;;;;;;38.58;29.30;;;;;;;28.67;100.00;97197.22;4764277;30;20056;-66
2023/08/02 00:26:43;;;;;;;44.55;30.33;;;;;;;28.67;100.00;97199.94;4765455;30;20155;-66
2023/08/02 00:29:13;;;;;;;46.03;29.27;;;;;;;28.66;100.00;97197.53;4749177;30;20163;-66
2023/08/02 00:31:43;;;;;;;43.33;30.00;;;;;;;28.69;100.00;97202.28;4763425;30;20055;-66
2023/08/02 00:34:12;;;;;;;55.13;31.27;;;;;;;28.68;100.00;97201.50;4748986;30;20040;-66
2023/08/02 00:36:42;;;;;;;47.08;31.92;;;;;;;28.70;100.00;97209.34;4745097;30;20147;-66
2023/08/02 00:39:13;;;;;;;41.65;29.73;;;;;;;28.71;100.00;97214.47;4755412;30;20055;-66
2023/08/02 00:42:03;;;;;;;42.50;29.95;;;;;;;28.74;100.00;97219.22;4752819;30;20072;-66
2023/08/02 00:44:33;;;;;;;43.38;29.83;;;;;;;28.76;100.00;97224.34;4749807;30;20102;-66
2023/08/02 00:47:03;;;;;;;47.75;31.25;;;;;;;28.76;100.00;97227.88;4762350;29;20142;-67
2023/08/02 00:49:33;;;;;;;51.90;33.08;;;;;;;28.79;100.00;97237.25;4751919;30;20464;-66
2023/08/02 00:52:02;;;;;;;46.55;31.67;;;;;;;28.80;100.00;97233.41;4736292;30;20056;-67
2023/08/02 00:54:32;;;;;;;50.60;33.05;;;;;;;28.83;100.00;97238.16;4748658;30;20052;-66
2023/08/02 00:57:01;;;;;;;40.72;30.23;;;;;;;28.85;100.00;97238.63;4730980;30;20457;-66
2023/08/02 00:59:31;;;;;;;42.85;31.13;;;;;;;28.87;100.00;97219.97;4755686;30;20374;-66
2023/08/02 01:02:01;;;;;;;43.30;31.27;;;;;;;28.90;100.00;97233.69;4758283;30;20151;-66
2023/08/02 01:04:30;;;;;;;48.33;30.73;;;;;;;28.93;100.00;97233.00;4736053;30;20481;-66
2023/08/02 01:07:11;;;;;;;41.15;30.83;;;;;;;28.98;100.00;97235.50;4761871;30;20071;-66
2023/08/02 01:09:47;;;;;;;48.58;30.80;;;;;;;29.02;100.00;97238.31;4763478;29;20048;-66
2023/08/02 01:12:20;;;;;;;48.35;30.42;;;;;;;29.05;100.00;97248.50;4731240;30;20048;-66
2023/08/02 01:14:57;;;;;;;44.35;31.20;;;;;;;29.08;100.00;97241.59;4753330;30;20055;-65
2023/08/02 01:17:27;;;;;;;45.15;31.27;;;;;;;29.14;100.00;97246.44;4764752;30;20068;-65
2023/08/02 01:20:06;;;;;;;45.50;32.33;;;;;;;29.17;100.00;97243.00;4736907;30;20546;-66
2023/08/02 01:22:37;;;;;;;51.17;31.88;;;;;;;29.20;100.00;97244.25;4758990;30;20144;-66
2023/08/02 01:25:08;;;;;;;45.97;31.95;;;;;;;29.25;100.00;97250.25;4752741;30;20062;-66
2023/08/02 01:27:48;;;;;;;50.58;34.60;;;;;;;29.31;100.00;97248.88;4735885;30;20120;-65
2023/08/02 01:30:20;;;;;;;46.60;31.98;;;;;;;29.34;100.00;97259.06;4759805;30;20352;-66
2023/08/02 01:32:50;;;;;;;42.50;31.95;;;;;;;29.41;100.00;97259.28;4754342;30;20113;-66
2023/08/02 01:35:21;;;;;;;40.50;30.48;;;;;;;29.45;100.00;97249.25;4757884;30;20528;-66
2023/08/02 01:37:50;;;;;;;38.92;29.73;;;;;;;29.53;100.00;97252.94;4758439;30;20140;-66
2023/08/02 01:40:19;;;;;;;38.67;30.27;;;;;;;29.63;100.00;97257.09;4756672;30;20143;-65
2023/08/02 01:42:49;;;;;;;40.47;30.00;;;;;;;29.69;100.00;97256.47;4748953;30;20052;-66
2023/08/02 01:45:18;;;;;;;43.03;30.48;;;;;;;29.76;100.00;97264.03;4765576;29;20063;-65
2023/08/02 01:47:48;;;;;;;46.28;30.77;;;;;;;29.84;100.00;97266.59;4765299;29;20180;-66
2023/08/02 01:50:18;;;;;;;41.88;28.67;;;;;;;29.93;100.00;97266.44;4735775;30;20129;-65
2023/08/02 01:52:49;;;;;;;44.78;29.13;;;;;;;30.04;100.00;97266.72;4745127;30;20186;-66
2023/08/02 01:55:19;;;;;;;40.22;28.15;;;;;;;30.31;100.00;97268.50;4765883;29;20544;-65
2023/08/02 01:57:48;;;;;;;41.85;27.67;;;;;;;30.62;100.00;97275.88;4747937;30;20067;-65
2023/08/02 02:00:17;;;;;;;41.97;25.25;;;;;;;30.99;100.00;97277.03;4722835;30;20056;-65
2023/08/02 02:02:47;;;;;;;34.97;24.48;;;;;;;31.31;100.00;97277.69;4750116;30;20055;-65
2023/08/02 02:05:17;;;;;;;39.83;25.20;;;;;;;31.63;100.00;97270.88;4742528;30;20143;-68
2023/08/02 02:07:48;;;;;;;29.52;21.45;;;;;;;31.82;100.00;97278.22;4768976;29;20846;-66
2023/08/02 02:10:17;;;;;;;31.13;21.33;;;;;;;32.17;100.00;97280.81;4737737;30;20058;-66
2023/08/02 02:12:47;;;;;;;32.88;21.52;;;;;;;32.52;100.00;97275.84;4735417;30;20060;-66
2023/08/02 02:15:16;;;;;;;38.10;20.70;;;;;;;32.77;100.00;97280.88;4750732;30;20086;-65
2023/08/02 02:17:45;;;;;;;31.55;19.25;;;;;;;33.21;100.00;97286.53;4755548;30;20055;-65
2023/08/02 02:20:14;;;;;;;35.85;19.85;;;;;;;33.38;100.00;97294.19;4748659;30;20052;-66
2023/08/02 02:22:43;;;;;;;33.95;19.10;;;;;;;33.31;100.00;97283.94;4768358;30;20052;-67
2023/08/02 02:25:12;;;;;;;32.00;18.83;;;;;;;33.12;100.00;97284.06;4736982;30;20059;-66
2023/08/02 02:27:43;;;;;;;37.88;20.38;;;;;;;33.38;100.00;97286.75;4748956;30;20147;-67
2023/08/02 02:30:13;;;;;;;29.15;18.83;;;;;;;33.54;100.00;97286.53;4750066;30;20059;-66
2023/08/02 02:32:43;;;;;;;30.40;18.55;;;;;;;33.56;100.00;97284.19;4750250;30;20457;-67
2023/08/02 02:35:12;;;;;;;28.88;19.00;;;;;;;33.68;100.00;97274.91;4764165;29;20067;-66
2023/08/02 02:37:42;;;;;;;31.70;18.40;;;;;;;33.99;100.00;97295.59;4752764;30;20120;-67
2023/08/02 02:40:13;;;;;;;33.88;18.45;;;;;;;34.00;100.00;97281.47;4758933;30;20059;-67
2023/08/02 02:42:42;;;;;;;30.58;17.63;;;;;;;33.98;100.00;97280.28;4757863;30;20717;-67
2023/08/02 02:45:13;;;;;;;27.38;15.57;;;;;;;34.13;100.00;97279.19;4749374;30;20512;-66
2023/08/02 02:47:43;;;;;;;30.67;16.70;;;;;;;34.45;100.00;97280.25;4752922;30;20083;-66
2023/08/02 02:50:13;;;;;;;25.98;15.07;;;;;;;34.41;100.00;97279.44;4767606;29;20213;-67
2023/08/02 02:52:42;;;;;;;32.53;15.48;;;;;;;34.14;100.00;97278.03;4750149;30;20059;-66
2023/08/02 02:55:11;;;;;;;26.95;15.65;;;;;;;34.50;100.00;97276.34;4763527;29;20143;-66
2023/08/02 02:57:41;;;;;;;28.33;14.07;;;;;;;34.22;99.99;97277.72;4764096;30;20477;-66
2023/08/02 03:00:10;;;;;;;25.17;14.13;;;;;;;34.25;97.01;97277.00;4748979;30;20056;-66
2023/08/02 03:02:40;;;;;;;33.53;13.60;;;;;;;34.20;100.00;97293.03;4750513;30;20048;-66
2023/08/02 03:05:09;;;;;;;29.27;13.65;;;;;;;33.93;100.00;97283.38;4745258;30;20143;-66
2023/08/02 03:07:38;;;;;;;26.60;13.27;;;;;;;34.00;100.00;97275.16;4753182;30;20047;-66
2023/08/02 03:10:08;;;;;;;22.38;13.70;;;;;;;33.68;100.00;97286.66;4751983;30;20552;-66
2023/08/02 03:12:37;;;;;;;26.65;13.60;;;;;;;33.75;100.00;97283.22;4765009;29;20063;-67
2023/08/02 03:15:07;;;;;;;28.85;12.57;;;;;;;33.65;100.00;97281.91;4746337;30;20205;-67
2023/08/02 03:17:36;;;;;;;24.90;13.15;;;;;;;33.60;100.00;97293.22;4748451;30;20139;-67
2023/08/02 03:20:07;;;;;;;26.27;13.00;;;;;;;33.59;100.00;97293.63;4744099;30;20064;-67
2023/08/02 03:22:36;;;;;;;25.42;12.45;;;;;;;33.36;100.00;97291.03;4750372;30;20047;-67
2023/08/02 03:25:05;;;;;;;25.58;11.50;;;;;;;33.39;100.00;97284.78;4749599;30;20056;-66
2023/08/02 03:27:35;;;;;;;22.20;10.80;;;;;;;33.40;100.00;97294.59;4749878;30;20060;-66
2023/08/02 03:30:04;;;;;;;25.00;12.90;;;;;;;33.10;100.00;97291.91;4747927;30;20170;-66
2023/08/02 03:32:33;;;;;;;26.23;12.45;;;;;;;33.12;100.00;97292.28;4752265;30;20056;-66
2023/08/02 03:35:03;;;;;;;23.10;12.02;;;;;;;33.24;100.00;97289.31;4737765;30;20060;-67
2023/08/02 03:37:36;;;;;;;30.23;11.18;;;;;;;33.19;100.00;97286.94;4755775;30;20457;-67
2023/08/02 03:40:06;;;;;;;23.70;11.10;;;;;;;33.29;100.00;97296.44;4756867;30;20071;-66
2023/08/02 03:42:36;;;;;;;22.92;10.52;;;;;;;33.25;100.00;97301.09;4755641;30;20064;-66
2023/08/02 03:45:05;;;;;;;19.35;9.77;;;;;;;33.41;100.00;97298.94;4749403;30;20720;-66
2023/08/02 03:47:35;;;;;;;20.83;10.07;;;;;;;33.61;100.00;97299.53;4757336;30;20168;-66
2023/08/02 03:50:05;;;;;;;25.65;10.27;;;;;;;33.70;100.00;97300.81;4752545;30;20067;-67
2023/08/02 03:52:34;;;;;;;20.17;9.50;;;;;;;33.98;100.00;97300.31;4754261;30;20416;-66
2023/08/02 03:55:04;;;;;;;26.85;10.18;;;;;;;34.15;98.99;97304.34;4751669;30;20048;-67
2023/08/02 03:57:33;;;;;;;20.65;7.97;;;;;;;34.05;95.43;97305.06;4751446;30;20629;-68
2023/08/02 04:00:03;;;;;;;21.63;8.70;;;;;;;34.05;94.70;97305.06;4759592;30;20073;-68
2023/08/02 04:02:41;;;;;;;24.20;10.07;;;;;;;34.23;99.18;97308.75;4743817;30;20044;-69
2023/08/02 04:05:10;;;;;;;23.70;9.63;;;;;;;34.02;95.83;97308.56;4749696;30;20079;-68
2023/08/02 04:07:40;;;;;;;20.38;9.52;;;;;;;34.07;95.58;97305.47;4753375;30;20084;-68
2023/08/02 04:10:10;;;;;;;30.65;10.35;;;;;;;34.21;98.87;97306.38;4752356;30;20070;-68
2023/08/02 04:12:39;;;;;;;41.55;9.65;;;;;;;34.23;95.49;97306.81;4751916;30;20070;-68
2023/08/02 04:15:10;;;;;;;22.02;8.07;;;;;;;34.34;96.16;97312.41;4750871;30;20052;-68
2023/08/02 04:17:40;;;;;;;17.25;6.97;;;;;;;34.07;94.28;97319.22;4751883;30;20067;-67
2023/08/02 04:20:10;;;;;;;20.52;6.70;;;;;;;33.86;100.00;97319.78;4749664;30;20064;-67
2023/08/02 04:22:39;;;;;;;20.90;6.85;;;;;;;33.86;100.00;97319.78;4753465;30;20092;-66
2023/08/02 04:25:09;;;;;;;17.15;6.65;;;;;;;33.93;93.81;97324.59;4743011;30;20052;-68
2023/08/02 04:27:38;;;;;;;20.20;6.82;;;;;;;34.12;92.32;97324.38;4751141;30;20560;-68
2023/08/02 04:30:08;;;;;;;16.27;5.65;;;;;;;34.32;90.99;97327.69;4752189;29;20063;-68
2023/08/02 04:32:37;;;;;;;13.20;5.32;;;;;;;34.45;85.95;97335.25;4747881;30;20060;-68
2023/08/02 04:35:07;;;;;;;20.38;5.95;;;;;;;34.54;88.02;97326.66;4751717;30;20052;-68
2023/08/02 04:37:36;;;;;;;23.77;5.30;;;;;;;34.90;85.69;97327.69;4749563;30;20074;-68
2023/08/02 04:40:06;;;;;;;15.65;4.90;;;;;;;35.06;87.36;97334.44;4752228;30;20110;-67
2023/08/02 04:42:35;;;;;;;17.52;4.70;;;;;;;35.25;85.16;97336.13;4745970;30;20488;-68
2023/08/02 04:45:05;;;;;;;17.80;5.00;;;;;;;35.52;85.81;97337.41;4746769;30;20056;-68
2023/08/02 04:47:35;;;;;;;17.02;5.25;;;;;;;35.59;81.73;97326.41;4753905;30;20064;-67
2023/08/02 04:50:06;;;;;;;16.50;5.63;;;;;;;35.90;86.38;97324.09;4751422;30;20094;-68
2023/08/02 04:52:37;;;;;;;16.58;5.05;;;;;;;36.18;84.03;97334.41;4750655;30;20180;-68
2023/08/02 04:55:07;;;;;;;17.40;5.28;;;;;;;36.03;82.40;97336.31;4747426;29;20052;-68
2023/08/02 04:57:38;;;;;;;14.40;5.40;;;;;;;35.75;80.73;97330.81;4749981;30;20055;-68
2023/08/02 05:00:08;;;;;;;18.88;6.22;;;;;;;36.22;85.25;97341.50;4760191;30;20381;-68
2023/08/02 05:02:37;;;;;;;19.00;6.18;;;;;;;36.01;78.07;97335.94;4736939;30;20056;-69
2023/08/02 05:05:07;;;;;;;19.77;5.85;;;;;;;36.15;77.04;97335.19;4745510;30;20044;-67
2023/08/02 05:07:39;;;;;;;17.90;5.70;;;;;;;36.42;78.32;97328.91;4745986;30;20721;-67
2023/08/02 05:10:09;;;;;;;17.25;5.72;;;;;;;36.35;79.13;97337.16;4747300;30;20475;-68
2023/08/02 05:12:40;;;;;;;18.25;6.30;;;;;;;36.21;82.75;97333.59;4748507;30;20992;-67
2023/08/02 05:15:10;;;;;;;19.20;6.22;;;;;;;36.08;83.70;97335.16;4758651;29;20142;-68
2023/08/02 05:17:40;;;;;;;22.23;6.40;;;;;;;35.85;81.22;97327.28;4746073;30;20064;-69
2023/08/02 05:20:10;;;;;;;15.77;6.47;;;;;;;36.11;84.73;97337.13;4743662;30;20052;-69
2023/08/02 05:22:40;;;;;;;20.02;6.10;;;;;;;35.86;83.25;97331.59;4743728;30;20052;-69
2023/08/02 05:25:09;;;;;;;22.10;6.15;;;;;;;35.63;84.89;97328.38;4741318;30;20134;-69
2023/08/02 05:27:39;;;;;;;16.83;5.30;;;;;;;35.47;80.35;97324.00;4742802;30;20052;-69
2023/08/02 05:30:08;;;;;;;15.93;6.40;;;;;;;35.73;81.40;97338.66;4746601;30;20074;-69
2023/08/02 05:32:38;;;;;;;23.33;7.00;;;;;;;35.93;86.16;97335.16;4746300;30;20048;-70
2023/08/02 05:35:07;;;;;;;18.77;6.65;;;;;;;36.13;83.05;97332.03;4745532;30;20071;-68
2023/08/02 05:37:37;;;;;;;16.55;5.80;;;;;;;36.39;80.32;97332.41;4745252;30;20099;-69
2023/08/02 05:40:07;;;;;;;16.70;6.40;;;;;;;36.29;80.19;97335.19;4744894;30;20147;-68
2023/08/02 05:42:36;;;;;;;21.50;6.47;;;;;;;36.39;81.19;97335.19;4744282;30;20171;-68
2023/08/02 05:45:06;;;;;;;18.10;6.07;;;;;;;36.36;75.62;97333.22;4748966;30;20588;-68
2023/08/02 05:47:37;;;;;;;14.32;5.45;;;;;;;36.19;70.96;97339.53;4751129;30;20109;-68
2023/08/02 05:50:08;;;;;;;18.40;6.05;;;;;;;36.33;78.27;97330.47;4759969;30;20060;-68
2023/08/02 05:52:38;;;;;;;20.05;8.23;;;;;;;36.23;75.00;97340.31;4742398;30;20491;-67
2023/08/02 05:55:08;;;;;;;12.15;5.40;;;;;;;36.43;76.81;97330.44;4747583;30;20537;-67
2023/08/02 05:57:41;;;;;;;20.05;6.53;;;;;;;36.51;77.78;97334.00;4743705;30;20060;-68
2023/08/02 06:00:11;;;;;;;14.50;5.00;;;;;;;36.54;76.01;97329.66;4744198;30;21207;-67
2023/08/02 06:02:40;;;;;;;15.48;5.63;;;;;;;36.11;71.58;97335.19;4739528;30;20133;-67
2023/08/02 06:05:10;;;;;;;19.70;5.50;;;;;;;36.17;76.19;97332.81;4743691;30;20072;-68
2023/08/02 06:07:40;;;;;;;18.23;5.85;;;;;;;36.13;71.68;97334.78;4763283;30;20119;-68
2023/08/02 06:10:10;;;;;;;13.52;5.28;;;;;;;35.94;71.88;97335.94;4754039;30;20063;-68
2023/08/02 06:12:39;;;;;;;16.67;6.47;;;;;;;36.25;79.55;97335.19;4744856;30;20060;-68
2023/08/02 06:15:09;;;;;;;15.68;6.75;;;;;;;36.48;78.67;97330.03;4746238;30;20568;-65
2023/08/02 06:17:38;;;;;;;14.48;5.63;;;;;;;36.27;73.55;97330.06;4745204;30;20048;-68
2023/08/02 06:20:09;;;;;;;19.65;5.60;;;;;;;36.03;71.69;97330.81;4754638;30;20060;-66
2023/08/02 06:22:39;;;;;;;16.00;5.97;;;;;;;36.30;76.24;97325.72;4742792;30;20062;-69
2023/08/02 06:25:09;;;;;;;18.42;5.80;;;;;;;36.10;73.55;97324.53;4740739;30;20056;-67
2023/08/02 06:27:38;;;;;;;21.85;6.53;;;;;;;36.05;72.20;97328.47;4745522;30;20056;-67
2023/08/02 06:30:08;;;;;;;16.92;5.82;;;;;;;36.30;78.16;97321.00;4750342;30;20084;-67
2023/08/02 06:32:38;;;;;;;22.23;6.25;;;;;;;36.49;77.94;97325.31;4746742;30;20139;-65
2023/08/02 06:35:09;;;;;;;15.82;6.22;;;;;;;36.39;77.67;97324.16;4744196;30;20384;-65
2023/08/02 06:37:39;;;;;;;15.13;6.80;;;;;;;36.12;77.31;97319.41;4745302;30;20506;-64
2023/08/02 06:40:10;;;;;;;18.85;6.60;;;;;;;35.83;77.04;97315.84;4743390;30;20063;-65
2023/08/02 06:42:40;;;;;;;14.60;5.65;;;;;;;35.75;73.93;97317.81;4759158;30;21015;-66
2023/08/02 06:45:10;;;;;;;17.25;6.07;;;;;;;36.03;76.17;97317.03;4746181;30;20052;-66
2023/08/02 06:47:39;;;;;;;19.95;6.05;;;;;;;35.98;78.10;97314.69;4741478;30;20537;-67
2023/08/02 06:50:09;;;;;;;21.52;6.32;;;;;;;36.19;82.33;97311.97;4744458;30;20063;-69
2023/08/02 06:52:39;;;;;;;17.05;6.00;;;;;;;36.18;77.98;97313.13;4747862;30;20059;-68
2023/08/02 06:55:08;;;;;;;18.63;5.63;;;;;;;36.29;80.00;97311.16;4754468;30;20074;-68
2023/08/02 06:57:38;;;;;;;22.02;5.85;;;;;;;35.94;71.91;97322.94;4745009;30;20056;-67
2023/08/02 07:00:08;;;;;;;19.65;6.88;;;;;;;36.02;74.37;97316.28;4736212;30;20587;-65
2023/08/02 07:02:38;;;;;;;18.75;5.93;;;;;;;36.32;81.32;97317.84;4762661;30;20404;-66
2023/08/02 07:05:08;;;;;;;17.88;6.13;;;;;;;36.20;78.74;97313.53;4743188;30;20056;-66
2023/08/02 07:07:38;;;;;;;18.67;5.13;;;;;;;35.79;75.07;97315.84;4750612;30;20465;-66
2023/08/02 07:10:07;;;;;;;15.85;5.50;;;;;;;35.55;80.27;97313.78;4752895;30;20069;-66
2023/08/02 07:12:37;;;;;;;16.80;6.22;;;;;;;35.45;82.00;97307.06;4750040;30;20688;-64
2023/08/02 07:15:07;;;;;;;18.23;7.32;;;;;;;35.71;75.72;97307.97;4750768;30;20737;-69
2023/08/02 07:17:36;;;;;;;21.17;7.18;;;;;;;36.02;78.35;97309.97;4753519;30;20052;-67
2023/08/02 07:20:08;;;;;;;19.63;5.93;;;;;;;35.99;74.08;97299.69;4745328;30;20096;-68
2023/08/02 07:22:37;;;;;;;17.02;6.32;;;;;;;36.12;79.20;97300.13;4748524;30;20103;-68
2023/08/02 07:25:07;;;;;;;21.20;6.93;;;;;;;36.03;73.25;97292.22;4745957;30;20056;-66
2023/08/02 07:27:38;;;;;;;18.80;6.65;;;;;;;36.08;74.36;97300.09;4749951;30;20055;-69
2023/08/02 07:30:08;;;;;;;16.35;5.95;;;;;;;36.28;76.10;97295.81;4749796;30;20059;-68
2023/08/02 07:32:37;;;;;;;13.90;5.63;;;;;;;36.18;70.61;97293.84;4752960;29;20059;-66
2023/08/02 07:35:07;;;;;;;16.98;5.90;;;;;;;36.10;72.64;97291.44;4748999;30;20060;-65
2023/08/02 07:37:37;;;;;;;16.08;5.95;;;;;;;36.22;73.59;97289.09;4745387;30;20147;-69
2023/08/02 07:40:06;;;;;;;15.90;5.55;;;;;;;36.22;73.38;97280.03;4749379;30;20222;-67
2023/08/02 07:42:36;;;;;;;21.33;6.65;;;;;;;36.21;73.17;97279.25;4749553;30;20225;-69
2023/08/02 07:45:11;;;;;;;16.65;5.85;;;;;;;36.06;65.31;97277.66;4751251;30;20060;-69
2023/08/02 07:47:40;;;;;;;18.50;5.88;;;;;;;36.28;75.13;97272.94;4739799;30;20453;-68
2023/08/02 07:50:10;;;;;;;19.67;5.50;;;;;;;36.26;70.38;97280.81;4748179;30;20370;-69
2023/08/02 07:52:41;;;;;;;16.60;6.38;;;;;;;36.38;71.88;97278.44;4752792;30;20556;-68
2023/08/02 07:55:11;;;;;;;15.55;5.55;;;;;;;36.39;69.16;97279.22;4745040;30;20077;-68
2023/08/02 07:57:40;;;;;;;16.52;7.07;;;;;;;36.26;64.92;97273.34;4751803;30;20090;-70
2023/08/02 08:00:11;;;;;;;18.48;7.00;;;;;;;36.29;71.87;97278.06;4745108;30;20500;-70
2023/08/02 08:02:40;;;;;;;13.95;5.75;;;;;;;36.40;69.98;97265.03;4749591;30;20056;-70
2023/08/02 08:05:10;;;;;;;15.73;5.97;;;;;;;36.23;72.63;97265.88;4743706;30;20175;-69
2023/08/02 08:07:39;;;;;;;15.70;6.43;;;;;;;35.96;68.49;97261.91;4746207;30;20883;-69
2023/08/02 08:10:09;;;;;;;15.63;6.03;;;;;;;36.10;72.54;97261.91;4747541;30;20096;-69
2023/08/02 08:12:39;;;;;;;15.98;6.80;;;;;;;36.15;71.26;97261.53;4744476;30;20143;-67
2023/08/02 08:15:08;;;;;;;31.20;9.52;;;;;;;36.17;78.21;97256.41;4749176;30;20052;-67
2023/08/02 08:17:38;;;;;;;18.90;8.38;;;;;;;36.01;73.98;97254.03;4745635;30;20052;-67
2023/08/02 08:20:08;;;;;;;17.60;9.32;;;;;;;36.10;77.16;97256.41;4742893;30;20139;-67
2023/08/02 08:22:40;;;;;;;17.58;9.73;;;;;;;36.19;79.94;97248.53;4751144;30;20631;-69
2023/08/02 08:25:14;;;;;;;23.25;11.02;;;;;;;36.12;80.83;97248.53;4755236;30;20167;-68
2023/08/02 08:27:44;;;;;;;27.25;12.40;;;;;;;35.95;79.33;97243.78;4752689;30;20067;-67
2023/08/02 08:30:14;;;;;;;23.60;12.00;;;;;;;35.99;78.98;97237.09;4746056;30;20080;-67
2023/08/02 08:32:43;;;;;;;19.35;12.38;;;;;;;36.02;80.56;97244.59;4750229;30;20067;-67
2023/08/02 08:35:12;;;;;;;26.02;14.63;;;;;;;35.90;79.99;97233.16;4764038;30;20056;-67
2023/08/02 08:37:43;;;;;;;23.58;15.07;;;;;;;35.87;82.49;97232.00;4731497;30;20067;-66
2023/08/02 08:40:20;;;;;;;27.50;17.15;;;;;;;35.85;79.65;97228.06;4744719;30;20131;-67
2023/08/02 08:42:52;;;;;;;24.20;16.13;;;;;;;35.87;80.32;97222.94;4747890;30;20084;-66
2023/08/02 08:45:25;;;;;;;29.08;19.00;;;;;;;35.83;78.88;97219.41;4744191;30;20060;-68
2023/08/02 08:47:55;;;;;;;30.48;19.02;;;;;;;35.93;82.92;97213.09;4747848;30;20083;-67
2023/08/02 08:50:27;;;;;;;26.08;18.17;;;;;;;35.91;80.20;97205.22;4741198;30;20066;-65
2023/08/02 08:53:04;;;;;;;23.98;16.73;;;;;;;35.93;78.72;97200.09;4750100;30;20071;-67
2023/08/02 08:55:35;;;;;;;22.10;15.50;;;;;;;35.95;80.31;97191.41;4750314;30;20044;-67
2023/08/02 08:58:07;;;;;;;22.30;19.73;;;;;;;35.97;78.16;97187.09;4750280;30;20064;-68
2023/08/02 09:00:39;;;;;;;30.38;21.92;;;;;;;35.99;76.68;97186.69;4742729;30;20137;-68
2023/08/02 09:03:12;;;;;;;32.85;20.85;;;;;;;35.93;79.89;97183.56;4741157;30;20137;-68
2023/08/02 09:05:43;;;;;;;27.80;18.60;;;;;;;35.94;78.18;97187.09;4744352;30;20485;-67
2023/08/02 09:08:13;;;;;;;28.25;19.88;;;;;;;35.97;76.11;97178.03;4747728;30;20130;-65
2023/08/02 09:10:43;;;;;;;26.05;18.67;;;;;;;36.00;81.43;97164.25;4751170;30;20091;-66
2023/08/02 09:13:23;;;;;;;34.63;18.08;;;;;;;35.88;79.07;97163.88;4736050;30;20063;-67
2023/08/02 09:16:18;;;;;;;23.38;17.45;;;;;;;35.85;78.87;97165.44;4740099;30;20121;-66
2023/08/02 09:18:49;;;;;;;28.27;18.05;;;;;;;35.91;76.61;97160.31;4749105;30;20157;-67
2023/08/02 09:21:22;;;;;;;26.25;16.90;;;;;;;35.98;81.14;97161.09;4750583;30;20068;-67
2023/08/02 09:24:00;;;;;;;27.50;15.82;;;;;;;35.81;75.31;97156.41;4753039;30;20062;-67
2023/08/02 09:26:30;;;;;;;24.90;15.25;;;;;;;35.82;75.75;97151.69;4746113;30;20683;-66
2023/08/02 09:28:59;;;;;;;26.27;15.07;;;;;;;35.80;75.95;97143.03;4751354;30;20625;-67
2023/08/02 09:31:31;;;;;;;24.98;14.60;;;;;;;35.91;77.05;97139.06;4751134;30;20356;-67
2023/08/02 09:34:02;;;;;;;29.00;15.38;;;;;;;35.87;74.84;97141.03;4747275;30;20790;-66
2023/08/02 09:36:34;;;;;;;22.90;14.18;;;;;;;35.85;75.81;97139.88;4760259;30;20151;-67
2023/08/02 09:39:11;;;;;;;19.55;13.20;;;;;;;35.82;76.52;97133.19;4749713;30;20429;-66
2023/08/02 09:41:41;;;;;;;21.70;12.40;;;;;;;35.73;74.93;97126.50;4748847;30;20516;-66
2023/08/02 09:44:29;;;;;;;26.17;13.80;;;;;;;35.73;76.78;97132.00;4736634;30;20060;-66
2023/08/02 09:47:12;;;;;;;21.33;12.35;;;;;;;35.67;73.03;97115.09;4744165;30;20190;-67
2023/08/02 09:49:41;;;;;;;21.75;11.63;;;;;;;35.74;77.12;97117.06;4749409;30;21047;-68
2023/08/02 09:52:25;;;;;;;21.88;10.80;;;;;;;35.87;73.51;97124.50;4748323;30;20064;-67
2023/08/02 09:54:55;;;;;;;18.65;10.45;;;;;;;35.85;71.64;97110.31;4748490;30;20066;-66
2023/08/02 09:57:29;;;;;;;21.17;11.18;;;;;;;35.87;72.43;97115.44;4751257;30;20055;-67
2023/08/02 10:00:09;;;;;;;21.02;9.73;;;;;;;35.92;73.41;97110.34;4749556;30;20051;-67
2023/08/02 10:02:42;;;;;;;22.83;10.25;;;;;;;35.91;72.59;97110.72;4744661;30;20449;-67
2023/08/02 10:05:13;;;;;;;20.58;9.00;;;;;;;35.82;74.69;97108.38;4745740;30;20108;-66
2023/08/02 10:07:51;;;;;;;24.58;10.32;;;;;;;35.67;72.58;97098.56;4749358;30;20060;-67
2023/08/02 10:10:25;;;;;;;21.65;10.77;;;;;;;35.72;71.19;97092.63;4731481;30;20166;-66
2023/08/02 10:13:08;;;;;;;24.38;10.77;;;;;;;35.80;72.34;97085.16;4744945;30;20059;-64
2023/08/02 10:15:40;;;;;;;20.90;10.57;;;;;;;35.72;72.30;97081.63;4748690;30;20197;-67
2023/08/02 10:18:12;;;;;;;27.23;11.53;;;;;;;35.68;73.20;97085.56;4742271;30;20063;-67
2023/08/02 10:20:42;;;;;;;25.33;9.77;;;;;;;35.54;71.47;97081.63;4760332;30;20055;-67
2023/08/02 10:23:11;;;;;;;24.30;10.23;;;;;;;35.47;74.51;97076.13;4756656;30;20055;-68
2023/08/02 10:25:42;;;;;;;21.45;10.85;;;;;;;35.39;76.76;97077.31;4747771;30;20660;-66
2023/08/02 10:28:13;;;;;;;19.45;10.35;;;;;;;35.35;77.02;97078.50;4745184;30;20071;-66
2023/08/02 10:30:43;;;;;;;18.08;10.02;;;;;;;35.35;77.67;97084.81;4745131;30;20040;-68
2023/08/02 10:33:18;;;;;;;28.40;10.90;;;;;;;35.32;79.12;97084.81;4754472;30;20396;-68
2023/08/02 10:35:54;;;;;;;20.15;9.02;;;;;;;35.20;81.50;97079.69;4749597;30;20463;-68
2023/08/02 10:38:46;;;;;;;17.50;8.57;;;;;;;35.17;81.67;97078.50;4751592;30;20534;-68
2023/08/02 10:41:21;;;;;;;21.05;8.95;;;;;;;35.13;82.47;97077.69;4746258;30;20144;-69
2023/08/02 10:43:53;;;;;;;20.02;7.68;;;;;;;35.08;82.18;97086.34;4749575;30;20074;-70
2023/08/02 10:46:32;;;;;;;19.38;7.90;;;;;;;35.11;82.70;97082.78;4760934;30;20668;-71
2023/08/02 10:49:24;;;;;;;22.67;7.70;;;;;;;35.08;81.98;97083.59;4745205;30;21225;-68
2023/08/02 10:51:56;;;;;;;19.08;7.60;;;;;;;35.08;82.71;97078.09;4734359;30;20059;-66
2023/08/02 10:54:26;;;;;;;24.05;7.30;;;;;;;35.05;83.59;97078.88;4745497;30;20064;-69
2023/08/02 10:57:04;;;;;;;15.35;6.85;;;;;;;35.09;82.23;97074.94;4746083;30;20087;-68
2023/08/02 10:59:34;;;;;;;18.23;7.60;;;;;;;35.18;82.07;97071.84;4745299;30;20064;-67
2023/08/02 11:02:11;;;;;;;18.25;6.68;;;;;;;35.20;81.81;97072.22;4744295;30;20504;-68
2023/08/02 11:04:47;;;;;;;17.63;7.18;;;;;;;35.30;80.34;97070.63;4744801;30;20052;-69
2023/08/02 11:07:19;;;;;;;22.60;7.32;;;;;;;35.37;79.89;97071.41;4744500;30;20056;-69
2023/08/02 11:09:54;;;;;;;17.98;6.30;;;;;;;35.36;78.45;97069.06;4744469;30;20055;-67
2023/08/02 11:12:26;;;;;;;16.45;6.78;;;;;;;35.35;77.53;97065.53;4742584;30;20043;-63
2023/08/02 11:14:56;;;;;;;20.42;6.53;;;;;;;35.34;77.33;97054.91;4742408;30;20067;-64
2023/08/02 11:17:25;;;;;;;12.10;5.32;;;;;;;35.30;76.71;97056.88;4740282;30;20063;-67
2023/08/02 11:19:57;;;;;;;13.25;5.32;;;;;;;35.35;78.00;97046.25;4754946;30;20071;-66
2023/08/02 11:22:36;;;;;;;20.20;5.97;;;;;;;35.36;76.12;97050.56;4744539;30;20078;-66
2023/08/02 11:25:06;;;;;;;17.20;5.97;;;;;;;35.30;77.51;97049.41;4744402;30;20056;-64
2023/08/02 11:27:36;;;;;;;17.95;6.10;;;;;;;35.27;77.05;97047.44;4746152;30;20179;-67
2023/08/02 11:30:08;;;;;;;;;;;;;;;35.27;75.88;97047.44;4743249;30;20052;-67
2023/08/02 11:32:46;;;;;;;19.85;6.18;;;;;;;35.25;74.27;97052.56;4747031;30;19930;-67
2023/08/02 11:35:18;;;;;;;14.90;6.18;;;;;;;35.25;75.46;97057.25;4741323;30;20088;-65
2023/08/02 11:37:48;;;;;;;14.70;5.65;;;;;;;35.23;75.52;97060.41;4745977;30;20060;-65